createdAt,value
2022-10-17T00:01:27.911Z,101592.00
2022-10-17T00:07:41.916Z,101600.00
2022-10-17T00:10:48.944Z,101605.20
2022-10-17T00:14:01.918Z,101607.80
2022-10-17T00:17:11.871Z,101608.20
2022-10-17T00:20:18.878Z,101614.60
2022-10-17T00:23:25.887Z,101606.60
2022-10-17T00:26:32.889Z,101609.20
2022-10-17T00:29:42.884Z,101606.00
2022-10-17T00:32:49.935Z,101601.60
2022-10-17T00:35:56.904Z,101601.40
2022-10-17T00:39:03.940Z,101599.20
2022-10-17T00:42:13.945Z,101601.20
2022-10-17T00:45:20.939Z,101605.80
2022-10-17T00:48:28.022Z,101595.60
2022-10-17T00:51:40.995Z,101590.40
2022-10-17T00:54:50.922Z,101594.60
2022-10-17T00:57:57.979Z,101597.00
2022-10-17T01:01:05.050Z,101594.00
2022-10-17T01:04:15.052Z,101591.60
2022-10-17T01:07:21.993Z,101592.60
2022-10-17T01:10:29.003Z,101597.80
2022-10-17T01:13:36.073Z,101599.00
2022-10-17T01:16:46.013Z,101601.00
2022-10-17T01:19:53.058Z,101600.00
2022-10-17T01:23:03.195Z,101599.40
2022-10-17T01:26:10.055Z,101601.20
2022-10-17T01:29:17.102Z,101597.20
2022-10-17T01:32:24.049Z,101598.80
2022-10-17T01:35:31.113Z,101595.80
2022-10-17T01:38:38.070Z,101596.40
2022-10-17T01:41:48.077Z,101596.00
2022-10-17T01:44:55.106Z,101602.40
2022-10-17T01:48:02.084Z,101596.20
2022-10-17T01:51:09.149Z,101592.40
2022-10-17T01:54:16.107Z,101593.40
2022-10-17T01:57:23.140Z,101597.00
2022-10-17T02:00:34.121Z,101602.80
2022-10-17T02:03:41.151Z,101601.00
2022-10-17T02:06:48.212Z,101605.40
2022-10-17T02:09:55.175Z,101606.20
2022-10-17T02:13:05.165Z,101614.20
2022-10-17T02:16:12.144Z,101610.00
2022-10-17T02:19:22.208Z,101608.80
2022-10-17T02:22:29.222Z,101611.00
2022-10-17T02:25:36.219Z,101611.80
2022-10-17T02:28:43.229Z,101615.00
2022-10-17T02:31:50.191Z,101620.40
2022-10-17T02:34:57.239Z,101620.20
2022-10-17T02:38:04.234Z,101623.20
2022-10-17T02:41:11.231Z,101618.40
2022-10-17T02:44:21.198Z,101626.40
2022-10-17T02:47:34.281Z,101627.60
2022-10-17T02:50:58.317Z,101629.80
2022-10-17T02:54:05.273Z,101631.60
2022-10-17T02:57:16.293Z,101632.40
2022-10-17T03:00:26.326Z,101637.00
2022-10-17T03:03:36.309Z,101631.00
2022-10-17T03:06:43.304Z,101636.20
2022-10-17T03:09:58.300Z,101639.40
2022-10-17T03:13:05.318Z,101640.60
2022-10-17T03:16:12.354Z,101635.20
2022-10-17T03:19:19.390Z,101633.20
2022-10-17T03:22:26.625Z,101632.00
2022-10-17T03:25:38.362Z,101631.20
2022-10-17T03:28:50.725Z,101636.20
2022-10-17T03:32:01.353Z,101637.20
2022-10-17T03:35:10.195Z,101643.00
2022-10-17T03:38:21.298Z,101645.40
2022-10-17T03:41:28.409Z,101646.40
2022-10-17T03:44:38.348Z,101652.00
2022-10-17T03:47:45.426Z,101661.60
2022-10-17T03:50:52.392Z,101665.00
2022-10-17T03:54:02.425Z,101672.40
2022-10-17T03:57:09.421Z,101672.60
2022-10-17T04:00:16.414Z,101673.60
2022-10-17T04:03:23.481Z,101675.60
2022-10-17T04:06:33.497Z,101670.00
2022-10-17T04:09:40.416Z,101671.20
2022-10-17T04:12:47.603Z,101672.00
2022-10-17T04:15:57.469Z,101671.00
2022-10-17T04:19:04.464Z,101668.60
2022-10-17T04:22:11.656Z,101669.40
2022-10-17T04:25:21.462Z,101671.80
2022-10-17T04:28:34.695Z,101676.60
2022-10-17T04:31:42.502Z,101678.00
2022-10-17T04:34:52.700Z,101679.20
2022-10-17T04:38:05.547Z,101683.40
2022-10-17T04:41:15.526Z,101681.20
2022-10-17T04:44:22.513Z,101687.20
2022-10-17T04:47:29.600Z,101687.60
2022-10-17T04:50:39.555Z,101682.20
2022-10-17T04:53:49.591Z,101682.20
2022-10-17T04:56:59.566Z,101689.40
2022-10-17T05:00:06.658Z,101692.20
2022-10-17T05:03:19.531Z,101695.80
2022-10-17T05:06:30.572Z,101697.80
2022-10-17T05:09:37.723Z,101698.40
2022-10-17T05:12:44.615Z,101695.40
2022-10-17T05:15:54.646Z,101696.80
2022-10-17T05:19:01.621Z,101698.80
2022-10-17T05:22:08.612Z,101703.20
2022-10-17T05:25:15.628Z,101708.20
2022-10-17T05:28:22.697Z,101708.60
2022-10-17T05:31:29.667Z,101711.80
2022-10-17T05:34:39.676Z,101715.60
2022-10-17T05:37:49.713Z,101724.20
2022-10-17T05:40:56.797Z,101724.80
2022-10-17T05:44:06.697Z,101734.00
2022-10-17T05:47:13.696Z,101739.40
2022-10-17T05:50:20.707Z,101745.20
2022-10-17T05:53:27.709Z,101748.80
2022-10-17T05:56:37.738Z,101751.00
2022-10-17T05:59:44.719Z,101757.60
2022-10-17T06:02:54.758Z,101759.40
2022-10-17T06:06:04.825Z,101753.80
2022-10-17T06:09:17.760Z,101759.60
2022-10-17T06:12:27.944Z,101767.40
2022-10-17T06:15:35.795Z,101771.20
2022-10-17T06:18:42.862Z,101772.20
2022-10-17T06:21:50.788Z,101777.40
2022-10-17T06:24:57.786Z,101775.80
2022-10-17T06:28:04.797Z,101782.60
2022-10-17T06:31:14.791Z,101786.00
2022-10-17T06:34:24.797Z,101785.00
2022-10-17T06:37:36.543Z,101788.40
2022-10-17T06:40:44.821Z,101790.80
2022-10-17T06:43:54.890Z,101797.20
2022-10-17T06:47:04.850Z,101797.60
2022-10-17T06:50:11.867Z,101799.80
2022-10-17T06:53:21.854Z,101796.00
2022-10-17T06:56:28.900Z,101798.00
2022-10-17T06:59:38.914Z,101796.40
2022-10-17T07:02:45.969Z,101798.40
2022-10-17T07:05:56.875Z,101801.40
2022-10-17T07:09:06.935Z,101794.80
2022-10-17T07:12:13.883Z,101795.20
2022-10-17T07:15:20.933Z,101795.80
2022-10-17T07:18:30.913Z,101793.80
2022-10-17T07:21:39.205Z,101797.80
2022-10-17T07:24:46.996Z,101795.20
2022-10-17T07:27:54.017Z,101795.00
2022-10-17T07:31:03.975Z,101802.60
2022-10-17T07:34:10.933Z,101806.40
2022-10-17T07:37:17.935Z,101803.80
2022-10-17T07:40:25.014Z,101804.40
2022-10-17T07:43:34.973Z,101808.60
2022-10-17T07:46:42.015Z,101810.80
2022-10-17T07:49:49.010Z,101809.20
2022-10-17T07:52:59.078Z,101807.40
2022-10-17T07:56:08.969Z,101808.20
2022-10-17T07:59:16.019Z,101804.20
2022-10-17T08:02:23.008Z,101800.20
2022-10-17T08:05:30.024Z,101800.20
2022-10-17T08:08:37.041Z,101797.80
2022-10-17T08:11:47.073Z,101795.00
2022-10-17T08:14:57.029Z,101801.00
2022-10-17T08:18:07.280Z,101802.80
2022-10-17T08:21:15.104Z,101806.20
2022-10-17T08:24:22.091Z,101803.60
2022-10-17T08:27:32.124Z,101801.20
2022-10-17T08:30:39.129Z,101790.80
2022-10-17T08:33:46.137Z,101789.20
2022-10-17T08:36:53.285Z,101788.00
2022-10-17T08:40:05.122Z,101784.80
2022-10-17T08:43:12.199Z,101780.20
2022-10-17T08:46:22.179Z,101779.60
2022-10-17T08:49:29.099Z,101785.20
2022-10-17T08:52:36.184Z,101787.20
2022-10-17T08:55:45.507Z,101785.60
2022-10-17T08:58:53.172Z,101790.00
2022-10-17T09:02:06.138Z,101794.80
2022-10-17T09:05:16.262Z,101787.40
2022-10-17T09:08:26.233Z,101789.00
2022-10-17T09:11:33.221Z,101795.20
2022-10-17T09:14:40.212Z,101798.00
2022-10-17T09:17:47.233Z,101796.80
2022-10-17T09:20:57.338Z,101798.00
2022-10-17T09:24:15.925Z,101797.20
2022-10-17T09:27:23.216Z,101792.00
2022-10-17T09:30:44.804Z,101795.00
2022-10-17T09:33:56.258Z,101793.20
2022-10-17T09:37:03.366Z,101790.60
2022-10-17T09:40:15.329Z,101788.80
2022-10-17T09:43:25.284Z,101789.00
2022-10-17T09:46:37.291Z,101787.40
2022-10-17T09:49:44.267Z,101789.00
2022-10-17T09:53:00.306Z,101785.20
2022-10-17T09:56:10.333Z,101777.20
2022-10-17T09:59:20.406Z,101786.20
2022-10-17T10:02:28.614Z,101785.60
2022-10-17T10:05:36.372Z,101787.80
2022-10-17T10:08:43.337Z,101780.40
2022-10-17T10:11:50.398Z,101775.40
2022-10-17T10:15:06.376Z,101772.20
2022-10-17T10:18:19.377Z,101767.00
2022-10-17T10:21:29.398Z,101768.80
2022-10-17T10:24:36.434Z,101769.80
2022-10-17T10:27:48.484Z,101767.00
2022-10-17T10:30:58.408Z,101763.20
2022-10-17T10:34:05.461Z,101760.60
2022-10-17T10:37:17.009Z,101757.60
2022-10-17T10:40:24.494Z,101749.00
2022-10-17T10:43:34.442Z,101746.80
2022-10-17T10:46:44.446Z,101742.60
2022-10-17T10:49:51.472Z,101745.00
2022-10-17T10:53:00.406Z,101738.60
2022-10-17T10:56:07.497Z,101732.80
2022-10-17T10:59:14.484Z,101732.20
2022-10-17T11:02:21.491Z,101733.00
2022-10-17T11:05:31.461Z,101730.40
2022-10-17T11:08:38.473Z,101726.80
2022-10-17T11:11:45.502Z,101723.00
2022-10-17T11:14:52.530Z,101730.20
2022-10-17T11:17:59.600Z,101726.40
2022-10-17T11:21:13.585Z,101719.80
2022-10-17T11:24:23.577Z,101716.60
2022-10-17T11:27:34.581Z,101710.60
2022-10-17T11:30:41.660Z,101708.00
2022-10-17T11:33:48.504Z,101706.80
2022-10-17T11:36:58.619Z,101700.20
2022-10-17T11:40:09.653Z,101703.00
2022-10-17T11:43:19.697Z,101694.80
2022-10-17T11:46:29.664Z,101692.80
2022-10-17T11:49:39.898Z,101688.40
2022-10-17T11:52:57.257Z,101687.20
2022-10-17T11:56:07.619Z,101684.20
2022-10-17T11:59:17.595Z,101682.20
2022-10-17T12:02:25.665Z,101682.20
2022-10-17T12:05:49.905Z,101680.80
2022-10-17T12:08:56.824Z,101676.00
2022-10-17T12:12:03.755Z,101669.60
2022-10-17T12:15:13.834Z,101671.00
2022-10-17T12:18:20.866Z,101668.60
2022-10-17T12:21:31.455Z,101670.80
2022-10-17T12:24:42.835Z,101669.00
2022-10-17T12:27:52.901Z,101669.40
2022-10-17T12:31:02.846Z,101675.40
2022-10-17T12:34:09.835Z,101670.40
2022-10-17T12:37:17.882Z,101672.80
2022-10-17T12:40:24.912Z,101672.60
2022-10-17T12:43:31.974Z,101675.20
2022-10-17T12:46:42.226Z,101670.60
2022-10-17T12:49:53.129Z,101673.20
2022-10-17T12:53:01.910Z,101664.00
2022-10-17T12:56:11.917Z,101668.00
2022-10-17T12:59:21.929Z,101663.60
2022-10-17T13:02:28.932Z,101666.80
2022-10-17T13:05:39.940Z,101667.20
2022-10-17T13:08:54.547Z,101663.40
2022-10-17T13:12:03.942Z,101666.20
2022-10-17T13:15:13.965Z,101665.00
2022-10-17T13:18:24.979Z,101662.40
2022-10-17T13:21:36.091Z,101666.40
2022-10-17T13:24:47.039Z,101669.40
2022-10-17T13:27:57.002Z,101667.20
2022-10-17T13:31:07.026Z,101663.60
2022-10-17T13:34:17.093Z,101666.40
2022-10-17T13:37:27.239Z,101664.20
2022-10-17T13:40:49.098Z,101669.00
2022-10-17T13:43:57.084Z,101665.60
2022-10-17T13:47:06.079Z,101666.60
2022-10-17T13:50:39.406Z,101670.80
2022-10-17T13:53:46.181Z,101674.80
2022-10-17T14:00:03.127Z,101675.20
2022-10-17T14:03:14.716Z,101673.40
2022-10-17T14:06:22.245Z,101672.80
2022-10-17T14:09:30.089Z,101674.40
2022-10-17T14:12:40.118Z,101675.40
2022-10-17T14:15:47.165Z,101674.80
2022-10-17T14:18:57.118Z,101674.80
2022-10-17T14:22:04.110Z,101681.20
2022-10-17T14:25:11.146Z,101684.40
2022-10-17T14:28:18.131Z,101683.80
2022-10-17T14:31:25.299Z,101686.00
2022-10-17T14:34:35.175Z,101685.00
2022-10-17T14:37:45.155Z,101685.60
2022-10-17T14:40:52.157Z,101691.60
2022-10-17T14:43:59.317Z,101695.40
2022-10-17T14:47:30.786Z,101692.80
2022-10-17T14:50:37.249Z,101692.00
2022-10-17T14:53:44.196Z,101691.40
2022-10-17T14:56:54.204Z,101692.40
2022-10-17T15:00:01.264Z,101686.00
2022-10-17T15:03:11.356Z,101686.80
2022-10-17T15:06:19.218Z,101685.60
2022-10-17T15:09:26.256Z,101687.00
2022-10-17T15:12:38.291Z,101689.60
2022-10-17T15:15:45.266Z,101691.80
2022-10-17T15:18:52.248Z,101693.80
2022-10-17T15:22:02.282Z,101699.20
2022-10-17T15:25:12.368Z,101705.20
2022-10-17T15:28:22.354Z,101702.40
2022-10-17T15:31:32.368Z,101702.40
2022-10-17T15:34:42.289Z,101702.00
2022-10-17T15:37:49.338Z,101704.00
2022-10-17T15:41:02.365Z,101709.40
2022-10-17T15:44:12.410Z,101710.60
2022-10-17T15:47:26.510Z,101715.80
2022-10-17T15:50:34.328Z,101718.00
2022-10-17T15:53:44.393Z,101722.60
2022-10-17T15:56:54.352Z,101727.00
2022-10-17T16:00:01.426Z,101727.60
2022-10-17T16:03:12.348Z,101734.40
2022-10-17T16:06:19.396Z,101737.80
2022-10-17T16:09:26.391Z,101736.40
2022-10-17T16:12:36.446Z,101737.60
2022-10-17T16:15:46.461Z,101743.20
2022-10-17T16:18:56.446Z,101745.20
2022-10-17T16:22:04.732Z,101741.20
2022-10-17T16:25:15.410Z,101745.80
2022-10-17T16:28:22.491Z,101746.40
2022-10-17T16:31:32.464Z,101747.00
2022-10-17T16:34:39.484Z,101752.00
2022-10-17T16:37:49.412Z,101757.40
2022-10-17T16:40:56.484Z,101762.80
2022-10-17T16:44:03.492Z,101764.80
2022-10-17T16:47:10.517Z,101760.20
2022-10-17T16:50:20.492Z,101763.80
2022-10-17T16:53:27.499Z,101765.20
2022-10-17T17:00:10.508Z,101763.60
2022-10-17T17:03:20.554Z,101765.00
2022-10-17T17:06:31.579Z,101765.60
2022-10-17T17:13:38.559Z,101772.60
2022-10-17T17:16:48.525Z,101772.00
2022-10-17T17:19:58.535Z,101776.80
2022-10-17T17:23:09.889Z,101772.40
2022-10-17T17:26:18.579Z,101775.60
2022-10-17T17:29:28.536Z,101774.40
2022-10-17T17:32:35.727Z,101774.60
2022-10-17T17:35:43.589Z,101779.40
2022-10-17T17:38:53.566Z,101781.60
2022-10-17T17:42:00.598Z,101788.40
2022-10-17T17:45:07.544Z,101788.20
2022-10-17T17:48:14.613Z,101788.20
2022-10-17T17:51:25.581Z,101787.00
2022-10-17T17:54:40.011Z,101790.80
2022-10-17T17:57:51.585Z,101793.40
2022-10-17T18:00:58.710Z,101797.00
2022-10-17T18:04:08.859Z,101802.20
2022-10-17T18:07:16.614Z,101806.20
2022-10-17T18:10:23.659Z,101804.40
2022-10-17T18:13:30.692Z,101802.80
2022-10-17T18:16:37.676Z,101807.80
2022-10-17T18:19:44.661Z,101804.60
2022-10-17T18:22:51.780Z,101809.40
2022-10-17T18:26:02.011Z,101812.60
2022-10-17T18:29:09.698Z,101814.60
2022-10-17T18:32:16.705Z,101814.40
2022-10-17T18:35:23.717Z,101814.00
2022-10-17T18:38:30.847Z,101813.60
2022-10-17T18:41:38.729Z,101811.20
2022-10-17T18:44:45.769Z,101813.40
2022-10-17T18:47:52.789Z,101813.20
2022-10-17T18:50:59.727Z,101813.40
2022-10-17T18:54:06.787Z,101813.20
2022-10-17T18:57:13.798Z,101820.20
2022-10-17T19:00:20.755Z,101822.60
2022-10-17T19:03:30.734Z,101825.20
2022-10-17T19:06:37.968Z,101825.80
2022-10-17T19:09:47.884Z,101832.00
2022-10-17T19:12:57.829Z,101831.20
2022-10-17T19:16:13.823Z,101834.60
2022-10-17T19:19:23.898Z,101835.20
2022-10-17T19:22:30.872Z,101837.60
2022-10-17T19:25:40.840Z,101839.00
2022-10-17T19:28:50.934Z,101836.20
2022-10-17T19:32:00.857Z,101839.60
2022-10-17T19:35:10.888Z,101843.60
2022-10-17T19:38:17.887Z,101841.00
2022-10-17T19:41:24.958Z,101844.60
2022-10-17T19:44:34.940Z,101847.80
2022-10-17T19:47:44.928Z,101846.80
2022-10-17T19:50:51.885Z,101844.60
2022-10-17T19:53:58.930Z,101844.40
2022-10-17T19:57:09.546Z,101845.20
2022-10-17T20:00:17.919Z,101848.40
2022-10-17T20:03:27.932Z,101847.40
2022-10-17T20:06:37.967Z,101843.00
2022-10-17T20:09:44.971Z,101845.00
2022-10-17T20:12:54.995Z,101841.60
2022-10-17T20:16:01.984Z,101838.60
2022-10-17T20:19:09.422Z,101834.20
2022-10-17T20:22:16.963Z,101829.60
2022-10-17T20:25:24.018Z,101830.20
2022-10-17T20:28:31.091Z,101831.80
2022-10-17T20:31:41.030Z,101832.60
2022-10-17T20:34:51.133Z,101826.60
2022-10-17T20:38:01.032Z,101829.00
2022-10-17T20:41:08.030Z,101821.00
2022-10-17T20:44:15.062Z,101817.80
2022-10-17T20:47:40.526Z,101820.20
2022-10-17T20:50:52.011Z,101818.40
2022-10-17T20:53:59.079Z,101817.60
2022-10-17T20:57:06.116Z,101817.60
2022-10-17T21:00:13.087Z,101820.40
2022-10-17T21:03:20.252Z,101817.00
2022-10-17T21:06:30.139Z,101818.80
2022-10-17T21:09:37.101Z,101821.20
2022-10-17T21:12:54.037Z,101818.20
2022-10-17T21:16:02.107Z,101818.40
2022-10-17T21:19:12.200Z,101821.40
2022-10-17T21:22:19.127Z,101818.20
2022-10-17T21:25:26.212Z,101818.20
2022-10-17T21:28:36.193Z,101818.20
2022-10-17T21:31:43.172Z,101817.40
2022-10-17T21:34:50.152Z,101813.60
2022-10-17T21:38:00.129Z,101817.00
2022-10-17T21:41:07.101Z,101814.80
2022-10-17T21:44:14.228Z,101818.60
2022-10-17T21:47:23.218Z,101823.40
2022-10-17T21:50:33.216Z,101817.40
2022-10-17T21:53:43.205Z,101811.40
2022-10-17T21:56:50.368Z,101817.60
2022-10-17T22:00:00.210Z,101815.00
2022-10-17T22:03:07.194Z,101817.20
2022-10-17T22:09:44.265Z,101813.40
2022-10-17T22:12:51.341Z,101811.60
2022-10-17T22:16:01.274Z,101804.60
2022-10-17T22:19:11.261Z,101804.40
2022-10-17T22:22:21.290Z,101798.00
2022-10-17T22:25:31.309Z,101795.40
2022-10-17T22:28:38.355Z,101791.20
2022-10-17T22:31:48.263Z,101799.20
2022-10-17T22:34:55.303Z,101796.00
2022-10-17T22:38:02.376Z,101792.80
2022-10-17T22:41:09.398Z,101793.40
2022-10-17T22:44:19.339Z,101793.40
2022-10-17T22:47:29.574Z,101789.40
2022-10-17T22:50:37.324Z,101796.00
2022-10-17T22:53:44.310Z,101789.40
2022-10-17T22:56:51.383Z,101789.60
2022-10-17T22:59:58.387Z,101788.80
2022-10-17T23:03:05.332Z,101791.40
2022-10-17T23:06:12.389Z,101779.40
2022-10-17T23:09:20.440Z,101779.00
2022-10-17T23:12:27.536Z,101777.80
2022-10-17T23:15:38.510Z,101780.80
2022-10-17T23:18:51.432Z,101780.40
2022-10-17T23:22:01.432Z,101780.20
2022-10-17T23:25:08.436Z,101777.40
2022-10-17T23:28:15.612Z,101773.20
2022-10-17T23:31:22.457Z,101765.00
2022-10-17T23:34:29.466Z,101759.60
2022-10-17T23:37:36.419Z,101762.60
2022-10-17T23:40:43.487Z,101759.00
2022-10-17T23:43:54.555Z,101756.80
2022-10-17T23:47:04.505Z,101752.60
2022-10-17T23:50:14.696Z,101746.60
2022-10-17T23:53:22.498Z,101748.20
2022-10-17T23:56:32.525Z,101753.20
2022-10-17T23:59:39.563Z,101751.00
